Bluff Dale, TX (76433)

8:27 PM CDT on August 30, 2015 (GMT -0500)
Mountain Lakes | | Change Station
CLOSE
Current Station
Personal Weather Station
Location: Bluff Dale, TX
Elevation: 1100 ft
Nearby Weather Stations

Elev 1100 ft 32.31 °N, 98.01 °W | Updated 0 second ago

Partly Cloudy
Partly Cloudy
78.4 °F
Feels Like 80 °F
N
0.0
Wind Variable Wind from WSW
Gusts 1.0 mph

Today
High -- | Low -- °F
--% Chance of Precip.
Yesterday
High -- | Low -- °F
Precip. -- in
7:05 AM 7:59 PM
Full, 98% visible
Pressure 30.00 in
Visibility 10.0 miles
Clouds Overcast 12000 ft
Heat Index 80 °F
Dew Point 62 °F
Humidity 58%
Rainfall 0.00 in
Snow Depth Not available.
UV 0 out of 12
Pollen 8.70 out of 12
Air Quality Not available.
Flu Activity Not available.
METAR KSEP 310115Z AUTO 15003KT 10SM OVC120 27/16 A3000 RMK AO2 T02670164
Pressure 30.00 in
Visibility 10.0 miles
Clouds Overcast 12000 ft
Heat Index 80 °F
Dew Point 62 °F
Humidity 58%
Rainfall 0.00 in
Snow Depth Not available.
UV 0 out of 12
Pollen 8.70 out of 12
Air Quality Not available.
Flu Activity Not available.
METAR KSEP 310115Z AUTO 15003KT 10SM OVC120 27/16 A3000 RMK AO2 T02670164

10-Day Weather Forecast

×

Almanac

Astronomy

Aug. 30, 2015 Rise Set
Actual Time
Civil Twilight
Nautical Twilight
Astronomical Twilight
Moon
Length of Visible Light
Length of Day
Tomorrow will be .
, % of the Moon is Illuminated

Today's Extremes

State Highs State Lows

Community

WunderPhotos

Upload Photos

1,851,130 photos uploaded!

WunderBlogs® & News

Nearby

Air Quality

  Air Quality AQ Index Pollutant
Not available.

Snow Depth

Station Depth Elevation

Earthquake Activity

City Distance Mag. Time & Date
Minimum magnitude displayed is 2.5.

Coastal Water Temperatures

Place Temperature

Stations

Nearby Weather Stations

Station Location Temp. Windchill Dew Point Humidity Wind Precip. Elev Updated Type